Terminal Aerodrome Forecast
Issued by NWS

Home | Current Version | Previous Version | Text Only | Print | Product List | Glossary On
Versions: 1 2 3 4 5 6 7 8 9 10 11 12 13 14 15 16 17
000
FTUS46 KHNX 310520
TAFMER
TAF
KMER 310520Z 3106/0106 15006KT 4SM BR SKC
     FM310800 00000KT 1SM BR SKC
     FM311000 00000KT 1/4SM FG VV001
     FM311500 00000KT 1SM BR SKC
     FM311700 00000KT 2SM BR BKN004
     FM312200 VRB03KT 4SM HZ SKC=

USA.gov is the U.S. government's official web portal to all federal, state and local government web resources and services.